sensor_id;sensor_type;location;lat;lon;timestamp;temperature;humidity
2042;DHT22;1026;51.460;7.252;2024-02-21T00:00:56;9.10;99.90
2042;DHT22;1026;51.460;7.252;2024-02-21T00:03:23;9.10;99.90
2042;DHT22;1026;51.460;7.252;2024-02-21T00:05:50;9.10;99.90
2042;DHT22;1026;51.460;7.252;2024-02-21T00:08:17;9.10;99.90
2042;DHT22;1026;51.460;7.252;2024-02-21T00:10:45;9.10;99.90
2042;DHT22;1026;51.460;7.252;2024-02-21T00:13:12;9.10;99.90
2042;DHT22;1026;51.460;7.252;2024-02-21T00:15:39;9.10;99.90
2042;DHT22;1026;51.460;7.252;2024-02-21T00:18:06;9.00;99.90
2042;DHT22;1026;51.460;7.252;2024-02-21T00:20:33;9.10;99.90
2042;DHT22;1026;51.460;7.252;2024-02-21T00:22:59;9.10;99.90
2042;DHT22;1026;51.460;7.252;2024-02-21T00:25:27;9.10;99.90
2042;DHT22;1026;51.460;7.252;2024-02-21T00:27:53;9.00;99.90
2042;DHT22;1026;51.460;7.252;2024-02-21T00:30:21;9.10;99.90
2042;DHT22;1026;51.460;7.252;2024-02-21T00:32:47;9.00;99.90
2042;DHT22;1026;51.460;7.252;2024-02-21T00:35:15;9.10;99.90
2042;DHT22;1026;51.460;7.252;2024-02-21T00:37:42;9.00;99.90
2042;DHT22;1026;51.460;7.252;2024-02-21T00:40:09;9.00;99.90
2042;DHT22;1026;51.460;7.252;2024-02-21T00:42:36;9.10;99.90
2042;DHT22;1026;51.460;7.252;2024-02-21T00:45:04;9.00;99.90
2042;DHT22;1026;51.460;7.252;2024-02-21T00:47:30;9.00;99.90
2042;DHT22;1026;51.460;7.252;2024-02-21T00:49:58;9.00;99.90
2042;DHT22;1026;51.460;7.252;2024-02-21T00:52:24;9.10;99.90
2042;DHT22;1026;51.460;7.252;2024-02-21T00:54:51;9.10;99.90
2042;DHT22;1026;51.460;7.252;2024-02-21T00:57:21;9.00;99.90
2042;DHT22;1026;51.460;7.252;2024-02-21T00:59:47;9.00;99.90
2042;DHT22;1026;51.460;7.252;2024-02-21T01:02:14;9.00;99.90
2042;DHT22;1026;51.460;7.252;2024-02-21T01:04:42;9.00;99.90
2042;DHT22;1026;51.460;7.252;2024-02-21T01:07:09;9.00;99.90
2042;DHT22;1026;51.460;7.252;2024-02-21T01:09:35;9.00;99.90
2042;DHT22;1026;51.460;7.252;2024-02-21T01:12:03;9.00;99.90
2042;DHT22;1026;51.460;7.252;2024-02-21T01:14:29;9.00;99.90
2042;DHT22;1026;51.460;7.252;2024-02-21T01:16:57;9.00;99.90
2042;DHT22;1026;51.460;7.252;2024-02-21T01:19:25;9.00;99.90
2042;DHT22;1026;51.460;7.252;2024-02-21T01:21:52;9.00;99.90
2042;DHT22;1026;51.460;7.252;2024-02-21T01:24:19;9.00;99.90
2042;DHT22;1026;51.460;7.252;2024-02-21T01:26:46;9.00;99.90
2042;DHT22;1026;51.460;7.252;2024-02-21T01:29:13;9.00;99.90
2042;DHT22;1026;51.460;7.252;2024-02-21T01:31:40;9.00;99.90
2042;DHT22;1026;51.460;7.252;2024-02-21T01:34:07;9.00;99.90
2042;DHT22;1026;51.460;7.252;2024-02-21T01:36:34;9.00;99.90
2042;DHT22;1026;51.460;7.252;2024-02-21T01:39:01;9.00;99.90
2042;DHT22;1026;51.460;7.252;2024-02-21T01:41:30;9.00;99.90
2042;DHT22;1026;51.460;7.252;2024-02-21T01:43:57;9.00;99.90
2042;DHT22;1026;51.460;7.252;2024-02-21T01:46:25;9.00;99.90
2042;DHT22;1026;51.460;7.252;2024-02-21T01:48:57;9.00;99.90
2042;DHT22;1026;51.460;7.252;2024-02-21T01:51:25;9.00;99.90
2042;DHT22;1026;51.460;7.252;2024-02-21T01:53:53;9.00;99.90
2042;DHT22;1026;51.460;7.252;2024-02-21T01:56:22;9.00;99.90
2042;DHT22;1026;51.460;7.252;2024-02-21T01:58:49;9.00;99.90
2042;DHT22;1026;51.460;7.252;2024-02-21T02:01:17;9.00;99.90
2042;DHT22;1026;51.460;7.252;2024-02-21T02:03:48;9.00;99.90
2042;DHT22;1026;51.460;7.252;2024-02-21T02:06:16;9.00;99.90
2042;DHT22;1026;51.460;7.252;2024-02-21T02:08:43;9.00;99.90
2042;DHT22;1026;51.460;7.252;2024-02-21T02:11:10;9.00;99.90
2042;DHT22;1026;51.460;7.252;2024-02-21T02:13:37;9.00;99.90
2042;DHT22;1026;51.460;7.252;2024-02-21T02:16:05;9.00;99.90
2042;DHT22;1026;51.460;7.252;2024-02-21T02:18:32;9.00;99.90
2042;DHT22;1026;51.460;7.252;2024-02-21T02:20:59;9.00;99.90
2042;DHT22;1026;51.460;7.252;2024-02-21T02:23:32;9.00;99.90
2042;DHT22;1026;51.460;7.252;2024-02-21T02:26:12;9.00;99.90
2042;DHT22;1026;51.460;7.252;2024-02-21T02:28:38;8.90;99.90
2042;DHT22;1026;51.460;7.252;2024-02-21T02:31:05;8.90;99.90
2042;DHT22;1026;51.460;7.252;2024-02-21T02:33:32;9.00;99.90
2042;DHT22;1026;51.460;7.252;2024-02-21T02:35:59;9.00;99.90
2042;DHT22;1026;51.460;7.252;2024-02-21T02:38:26;9.00;99.90
2042;DHT22;1026;51.460;7.252;2024-02-21T02:40:53;9.00;99.90
2042;DHT22;1026;51.460;7.252;2024-02-21T02:43:20;8.90;99.90
2042;DHT22;1026;51.460;7.252;2024-02-21T02:45:47;9.00;99.90
2042;DHT22;1026;51.460;7.252;2024-02-21T02:48:14;8.90;99.90
2042;DHT22;1026;51.460;7.252;2024-02-21T02:50:41;9.00;99.90
2042;DHT22;1026;51.460;7.252;2024-02-21T02:53:08;8.90;99.90
2042;DHT22;1026;51.460;7.252;2024-02-21T02:55:35;8.90;99.90
2042;DHT22;1026;51.460;7.252;2024-02-21T02:58:02;8.90;99.90
2042;DHT22;1026;51.460;7.252;2024-02-21T03:00:29;8.90;99.90
2042;DHT22;1026;51.460;7.252;2024-02-21T03:02:56;8.90;99.90
2042;DHT22;1026;51.460;7.252;2024-02-21T03:05:23;9.00;99.90
2042;DHT22;1026;51.460;7.252;2024-02-21T03:07:50;8.90;99.90
2042;DHT22;1026;51.460;7.252;2024-02-21T03:10:17;8.90;99.90
2042;DHT22;1026;51.460;7.252;2024-02-21T03:12:45;8.90;99.90
2042;DHT22;1026;51.460;7.252;2024-02-21T03:15:13;8.90;99.90
2042;DHT22;1026;51.460;7.252;2024-02-21T03:17:41;8.90;99.90
2042;DHT22;1026;51.460;7.252;2024-02-21T03:20:09;8.90;99.90
2042;DHT22;1026;51.460;7.252;2024-02-21T03:22:39;8.90;99.90
2042;DHT22;1026;51.460;7.252;2024-02-21T03:25:08;8.90;99.90
2042;DHT22;1026;51.460;7.252;2024-02-21T03:27:35;8.90;99.90
2042;DHT22;1026;51.460;7.252;2024-02-21T03:30:03;8.90;99.90
2042;DHT22;1026;51.460;7.252;2024-02-21T03:32:31;8.90;99.90
2042;DHT22;1026;51.460;7.252;2024-02-21T03:34:58;8.90;99.90
2042;DHT22;1026;51.460;7.252;2024-02-21T03:37:25;8.90;99.90
2042;DHT22;1026;51.460;7.252;2024-02-21T03:39:52;8.90;99.90
2042;DHT22;1026;51.460;7.252;2024-02-21T03:42:19;8.90;99.90
2042;DHT22;1026;51.460;7.252;2024-02-21T03:44:45;8.90;99.90
2042;DHT22;1026;51.460;7.252;2024-02-21T03:47:12;8.90;99.90
2042;DHT22;1026;51.460;7.252;2024-02-21T03:49:39;8.90;99.90
2042;DHT22;1026;51.460;7.252;2024-02-21T03:52:06;8.90;99.90
2042;DHT22;1026;51.460;7.252;2024-02-21T03:54:34;8.80;99.90
2042;DHT22;1026;51.460;7.252;2024-02-21T03:57:01;8.80;99.90
2042;DHT22;1026;51.460;7.252;2024-02-21T03:59:29;8.90;99.90
2042;DHT22;1026;51.460;7.252;2024-02-21T04:01:56;8.80;99.90
2042;DHT22;1026;51.460;7.252;2024-02-21T04:04:23;8.80;99.90
2042;DHT22;1026;51.460;7.252;2024-02-21T04:06:50;8.80;99.90
2042;DHT22;1026;51.460;7.252;2024-02-21T04:09:18;8.80;99.90
2042;DHT22;1026;51.460;7.252;2024-02-21T04:11:45;8.80;99.90
2042;DHT22;1026;51.460;7.252;2024-02-21T04:14:12;8.80;99.90
2042;DHT22;1026;51.460;7.252;2024-02-21T04:16:39;8.80;99.90
2042;DHT22;1026;51.460;7.252;2024-02-21T04:19:39;8.80;99.90
2042;DHT22;1026;51.460;7.252;2024-02-21T04:22:06;8.80;99.90
2042;DHT22;1026;51.460;7.252;2024-02-21T04:24:32;8.80;99.90
2042;DHT22;1026;51.460;7.252;2024-02-21T04:26:59;8.80;99.90
2042;DHT22;1026;51.460;7.252;2024-02-21T04:29:26;8.90;99.90
2042;DHT22;1026;51.460;7.252;2024-02-21T04:31:54;8.80;99.90
2042;DHT22;1026;51.460;7.252;2024-02-21T04:34:21;8.90;99.90
2042;DHT22;1026;51.460;7.252;2024-02-21T04:36:48;8.80;99.90
2042;DHT22;1026;51.460;7.252;2024-02-21T04:39:15;8.80;99.90
2042;DHT22;1026;51.460;7.252;2024-02-21T04:41:42;8.90;99.90
2042;DHT22;1026;51.460;7.252;2024-02-21T04:44:08;8.80;99.90
2042;DHT22;1026;51.460;7.252;2024-02-21T04:46:35;8.80;99.90
2042;DHT22;1026;51.460;7.252;2024-02-21T04:49:02;8.80;99.90
2042;DHT22;1026;51.460;7.252;2024-02-21T04:51:29;8.80;99.90
2042;DHT22;1026;51.460;7.252;2024-02-21T04:53:56;8.80;99.90
2042;DHT22;1026;51.460;7.252;2024-02-21T04:56:23;8.80;99.90
2042;DHT22;1026;51.460;7.252;2024-02-21T04:58:50;8.80;99.90
2042;DHT22;1026;51.460;7.252;2024-02-21T05:01:17;8.80;99.90
2042;DHT22;1026;51.460;7.252;2024-02-21T05:03:44;8.80;99.90
2042;DHT22;1026;51.460;7.252;2024-02-21T05:06:11;8.80;99.90
2042;DHT22;1026;51.460;7.252;2024-02-21T05:08:38;8.80;99.90
2042;DHT22;1026;51.460;7.252;2024-02-21T05:11:05;8.80;99.90
2042;DHT22;1026;51.460;7.252;2024-02-21T05:13:32;8.80;99.90
2042;DHT22;1026;51.460;7.252;2024-02-21T05:15:59;8.80;99.90
2042;DHT22;1026;51.460;7.252;2024-02-21T05:18:28;8.80;99.90
2042;DHT22;1026;51.460;7.252;2024-02-21T05:20:55;8.80;99.90
2042;DHT22;1026;51.460;7.252;2024-02-21T05:23:22;8.80;99.90
2042;DHT22;1026;51.460;7.252;2024-02-21T05:25:49;8.80;99.90
2042;DHT22;1026;51.460;7.252;2024-02-21T05:28:16;8.80;99.90
2042;DHT22;1026;51.460;7.252;2024-02-21T05:30:42;8.80;99.90
2042;DHT22;1026;51.460;7.252;2024-02-21T05:33:09;8.80;99.90
2042;DHT22;1026;51.460;7.252;2024-02-21T05:35:36;8.80;99.90
2042;DHT22;1026;51.460;7.252;2024-02-21T05:38:04;8.80;99.90
2042;DHT22;1026;51.460;7.252;2024-02-21T05:40:34;8.80;99.90
2042;DHT22;1026;51.460;7.252;2024-02-21T05:43:01;8.80;99.90
2042;DHT22;1026;51.460;7.252;2024-02-21T05:45:28;8.80;99.90
2042;DHT22;1026;51.460;7.252;2024-02-21T05:47:55;8.80;99.90
2042;DHT22;1026;51.460;7.252;2024-02-21T05:50:33;8.80;99.90
2042;DHT22;1026;51.460;7.252;2024-02-21T05:53:00;8.80;99.90
2042;DHT22;1026;51.460;7.252;2024-02-21T05:55:27;8.80;99.90
2042;DHT22;1026;51.460;7.252;2024-02-21T05:57:54;8.80;99.90
2042;DHT22;1026;51.460;7.252;2024-02-21T06:00:22;8.80;99.90
2042;DHT22;1026;51.460;7.252;2024-02-21T06:02:49;8.80;99.90
2042;DHT22;1026;51.460;7.252;2024-02-21T06:05:16;8.80;99.90
2042;DHT22;1026;51.460;7.252;2024-02-21T06:07:43;8.80;99.90
2042;DHT22;1026;51.460;7.252;2024-02-21T06:10:10;8.80;99.90
2042;DHT22;1026;51.460;7.252;2024-02-21T06:12:37;8.80;99.90
2042;DHT22;1026;51.460;7.252;2024-02-21T06:15:05;8.80;99.90
2042;DHT22;1026;51.460;7.252;2024-02-21T06:17:32;8.80;99.90
2042;DHT22;1026;51.460;7.252;2024-02-21T06:19:58;8.80;99.90
2042;DHT22;1026;51.460;7.252;2024-02-21T06:22:26;8.80;99.90
2042;DHT22;1026;51.460;7.252;2024-02-21T06:24:53;8.80;99.90
2042;DHT22;1026;51.460;7.252;2024-02-21T06:27:20;8.80;99.90
2042;DHT22;1026;51.460;7.252;2024-02-21T06:29:47;8.80;99.90
2042;DHT22;1026;51.460;7.252;2024-02-21T06:32:14;8.80;99.90
2042;DHT22;1026;51.460;7.252;2024-02-21T06:34:41;8.80;99.90
2042;DHT22;1026;51.460;7.252;2024-02-21T06:37:08;8.80;99.90
2042;DHT22;1026;51.460;7.252;2024-02-21T06:39:35;8.80;99.90
2042;DHT22;1026;51.460;7.252;2024-02-21T06:42:04;8.80;99.90
2042;DHT22;1026;51.460;7.252;2024-02-21T06:44:31;8.80;99.90
2042;DHT22;1026;51.460;7.252;2024-02-21T06:47:01;8.80;99.90
2042;DHT22;1026;51.460;7.252;2024-02-21T06:49:28;8.80;99.90
2042;DHT22;1026;51.460;7.252;2024-02-21T06:51:55;8.80;99.90
2042;DHT22;1026;51.460;7.252;2024-02-21T06:54:22;8.80;99.90
2042;DHT22;1026;51.460;7.252;2024-02-21T06:56:56;8.80;99.90
2042;DHT22;1026;51.460;7.252;2024-02-21T06:59:23;8.80;99.90
2042;DHT22;1026;51.460;7.252;2024-02-21T07:01:52;8.80;99.90
2042;DHT22;1026;51.460;7.252;2024-02-21T07:04:20;8.80;99.90
2042;DHT22;1026;51.460;7.252;2024-02-21T07:06:47;8.80;99.90
2042;DHT22;1026;51.460;7.252;2024-02-21T07:09:14;8.80;99.90
2042;DHT22;1026;51.460;7.252;2024-02-21T07:11:41;8.80;99.90
2042;DHT22;1026;51.460;7.252;2024-02-21T07:14:11;8.80;99.90
2042;DHT22;1026;51.460;7.252;2024-02-21T07:16:38;8.80;99.90
2042;DHT22;1026;51.460;7.252;2024-02-21T07:19:05;8.80;99.90
2042;DHT22;1026;51.460;7.252;2024-02-21T07:21:32;8.80;99.90
2042;DHT22;1026;51.460;7.252;2024-02-21T07:23:59;8.80;99.90
2042;DHT22;1026;51.460;7.252;2024-02-21T07:26:25;8.80;99.90
2042;DHT22;1026;51.460;7.252;2024-02-21T07:28:52;8.80;99.90
2042;DHT22;1026;51.460;7.252;2024-02-21T07:31:19;8.80;99.90
2042;DHT22;1026;51.460;7.252;2024-02-21T07:33:46;8.80;99.90
2042;DHT22;1026;51.460;7.252;2024-02-21T07:36:15;8.80;99.90
2042;DHT22;1026;51.460;7.252;2024-02-21T07:38:42;8.80;99.90
2042;DHT22;1026;51.460;7.252;2024-02-21T07:41:09;8.80;99.90
2042;DHT22;1026;51.460;7.252;2024-02-21T07:43:45;8.80;99.90
2042;DHT22;1026;51.460;7.252;2024-02-21T07:46:12;8.80;99.90
2042;DHT22;1026;51.460;7.252;2024-02-21T07:48:39;8.80;99.90
2042;DHT22;1026;51.460;7.252;2024-02-21T07:51:05;8.80;99.90
2042;DHT22;1026;51.460;7.252;2024-02-21T07:53:40;8.80;99.90
2042;DHT22;1026;51.460;7.252;2024-02-21T07:56:12;8.80;99.90
2042;DHT22;1026;51.460;7.252;2024-02-21T07:58:38;8.80;99.90
2042;DHT22;1026;51.460;7.252;2024-02-21T08:01:05;8.80;99.90
2042;DHT22;1026;51.460;7.252;2024-02-21T08:03:32;8.80;99.90
2042;DHT22;1026;51.460;7.252;2024-02-21T08:08:56;8.80;99.90
2042;DHT22;1026;51.460;7.252;2024-02-21T08:11:23;8.80;99.90
2042;DHT22;1026;51.460;7.252;2024-02-21T08:13:51;8.80;99.90
2042;DHT22;1026;51.460;7.252;2024-02-21T08:16:18;8.80;99.90
2042;DHT22;1026;51.460;7.252;2024-02-21T08:18:44;8.80;99.90
2042;DHT22;1026;51.460;7.252;2024-02-21T08:21:11;8.80;99.90
2042;DHT22;1026;51.460;7.252;2024-02-21T08:23:38;8.90;99.90
2042;DHT22;1026;51.460;7.252;2024-02-21T08:26:05;8.80;99.90
2042;DHT22;1026;51.460;7.252;2024-02-21T08:28:32;8.80;99.90
2042;DHT22;1026;51.460;7.252;2024-02-21T08:30:59;8.80;99.90
2042;DHT22;1026;51.460;7.252;2024-02-21T08:33:26;8.80;99.90
2042;DHT22;1026;51.460;7.252;2024-02-21T08:35:53;8.80;99.90
2042;DHT22;1026;51.460;7.252;2024-02-21T08:38:20;8.80;99.90
2042;DHT22;1026;51.460;7.252;2024-02-21T08:40:47;8.80;99.90
2042;DHT22;1026;51.460;7.252;2024-02-21T08:43:13;8.90;99.90
2042;DHT22;1026;51.460;7.252;2024-02-21T08:45:40;8.80;99.90
2042;DHT22;1026;51.460;7.252;2024-02-21T08:48:07;8.80;99.90
2042;DHT22;1026;51.460;7.252;2024-02-21T08:50:35;8.90;99.90
2042;DHT22;1026;51.460;7.252;2024-02-21T08:53:03;8.90;99.90
2042;DHT22;1026;51.460;7.252;2024-02-21T08:55:30;8.90;99.90
2042;DHT22;1026;51.460;7.252;2024-02-21T08:57:57;8.80;99.90
2042;DHT22;1026;51.460;7.252;2024-02-21T09:00:24;8.90;99.90
2042;DHT22;1026;51.460;7.252;2024-02-21T09:02:54;8.90;99.90
2042;DHT22;1026;51.460;7.252;2024-02-21T09:05:22;8.90;99.90
2042;DHT22;1026;51.460;7.252;2024-02-21T09:07:51;8.90;99.90
2042;DHT22;1026;51.460;7.252;2024-02-21T09:10:18;8.90;99.90
2042;DHT22;1026;51.460;7.252;2024-02-21T09:12:45;8.90;99.90
2042;DHT22;1026;51.460;7.252;2024-02-21T09:15:12;8.90;99.90
2042;DHT22;1026;51.460;7.252;2024-02-21T09:17:39;8.90;99.90
2042;DHT22;1026;51.460;7.252;2024-02-21T09:20:07;8.80;99.90
2042;DHT22;1026;51.460;7.252;2024-02-21T09:22:34;8.80;99.90
2042;DHT22;1026;51.460;7.252;2024-02-21T09:25:02;8.70;99.90
2042;DHT22;1026;51.460;7.252;2024-02-21T09:27:30;8.70;99.90
2042;DHT22;1026;51.460;7.252;2024-02-21T09:29:57;8.70;99.90
2042;DHT22;1026;51.460;7.252;2024-02-21T09:32:25;8.70;99.90
2042;DHT22;1026;51.460;7.252;2024-02-21T09:34:52;8.70;99.90
2042;DHT22;1026;51.460;7.252;2024-02-21T09:37:25;8.70;99.90
2042;DHT22;1026;51.460;7.252;2024-02-21T09:39:52;8.70;99.90
2042;DHT22;1026;51.460;7.252;2024-02-21T09:42:21;8.80;99.90
2042;DHT22;1026;51.460;7.252;2024-02-21T09:44:50;8.80;99.90
2042;DHT22;1026;51.460;7.252;2024-02-21T09:47:48;8.80;99.90
2042;DHT22;1026;51.460;7.252;2024-02-21T09:50:18;8.80;99.90
2042;DHT22;1026;51.460;7.252;2024-02-21T09:52:48;8.70;99.90
2042;DHT22;1026;51.460;7.252;2024-02-21T09:55:18;8.70;99.90
2042;DHT22;1026;51.460;7.252;2024-02-21T09:57:45;8.70;99.90
2042;DHT22;1026;51.460;7.252;2024-02-21T10:00:13;8.70;99.90
2042;DHT22;1026;51.460;7.252;2024-02-21T10:02:48;8.60;99.90
2042;DHT22;1026;51.460;7.252;2024-02-21T10:05:17;8.70;99.90
2042;DHT22;1026;51.460;7.252;2024-02-21T10:07:44;8.70;99.90
2042;DHT22;1026;51.460;7.252;2024-02-21T10:10:11;8.70;99.90
2042;DHT22;1026;51.460;7.252;2024-02-21T10:12:51;8.70;99.90
2042;DHT22;1026;51.460;7.252;2024-02-21T10:15:22;8.70;99.90
2042;DHT22;1026;51.460;7.252;2024-02-21T10:17:59;8.70;99.90
2042;DHT22;1026;51.460;7.252;2024-02-21T10:20:26;8.80;99.90
2042;DHT22;1026;51.460;7.252;2024-02-21T10:23:04;8.80;99.90
2042;DHT22;1026;51.460;7.252;2024-02-21T10:25:36;8.80;99.90
2042;DHT22;1026;51.460;7.252;2024-02-21T10:28:08;8.70;99.90
2042;DHT22;1026;51.460;7.252;2024-02-21T10:30:35;8.70;99.90
2042;DHT22;1026;51.460;7.252;2024-02-21T10:33:02;8.70;99.90
2042;DHT22;1026;51.460;7.252;2024-02-21T10:35:31;8.70;99.90
2042;DHT22;1026;51.460;7.252;2024-02-21T10:37:59;8.70;99.90
2042;DHT22;1026;51.460;7.252;2024-02-21T10:40:28;8.80;99.90
2042;DHT22;1026;51.460;7.252;2024-02-21T10:42:58;8.80;99.90
2042;DHT22;1026;51.460;7.252;2024-02-21T10:45:34;8.90;99.90
2042;DHT22;1026;51.460;7.252;2024-02-21T10:48:13;8.80;99.90
2042;DHT22;1026;51.460;7.252;2024-02-21T10:51:07;8.90;99.90
2042;DHT22;1026;51.460;7.252;2024-02-21T10:56:38;8.90;99.90
2042;DHT22;1026;51.460;7.252;2024-02-21T10:59:07;8.90;99.90
2042;DHT22;1026;51.460;7.252;2024-02-21T11:01:34;8.90;99.90
2042;DHT22;1026;51.460;7.252;2024-02-21T11:04:09;8.90;99.90
2042;DHT22;1026;51.460;7.252;2024-02-21T11:06:40;9.00;99.90
2042;DHT22;1026;51.460;7.252;2024-02-21T11:09:09;9.00;99.90
2042;DHT22;1026;51.460;7.252;2024-02-21T11:11:41;9.00;99.90
2042;DHT22;1026;51.460;7.252;2024-02-21T11:14:20;9.10;99.90
2042;DHT22;1026;51.460;7.252;2024-02-21T11:16:47;9.10;99.90
2042;DHT22;1026;51.460;7.252;2024-02-21T11:19:28;9.10;99.90
2042;DHT22;1026;51.460;7.252;2024-02-21T11:21:57;9.10;99.90
2042;DHT22;1026;51.460;7.252;2024-02-21T11:24:32;9.20;99.90
2042;DHT22;1026;51.460;7.252;2024-02-21T11:27:18;9.20;99.90
2042;DHT22;1026;51.460;7.252;2024-02-21T11:29:57;9.20;99.90
2042;DHT22;1026;51.460;7.252;2024-02-21T11:32:25;9.20;99.90
2042;DHT22;1026;51.460;7.252;2024-02-21T11:35:00;9.20;99.90
2042;DHT22;1026;51.460;7.252;2024-02-21T11:37:34;9.20;99.90
2042;DHT22;1026;51.460;7.252;2024-02-21T11:40:04;9.20;99.90
2042;DHT22;1026;51.460;7.252;2024-02-21T11:42:33;9.20;99.90
2042;DHT22;1026;51.460;7.252;2024-02-21T11:45:00;9.20;99.90
2042;DHT22;1026;51.460;7.252;2024-02-21T11:47:30;9.20;99.90
2042;DHT22;1026;51.460;7.252;2024-02-21T11:49:57;9.30;99.90
2042;DHT22;1026;51.460;7.252;2024-02-21T11:52:25;9.30;99.90
2042;DHT22;1026;51.460;7.252;2024-02-21T11:54:53;9.30;99.90
2042;DHT22;1026;51.460;7.252;2024-02-21T11:57:21;9.30;99.90
2042;DHT22;1026;51.460;7.252;2024-02-21T11:59:48;9.30;99.90
2042;DHT22;1026;51.460;7.252;2024-02-21T12:02:23;9.30;99.90
2042;DHT22;1026;51.460;7.252;2024-02-21T12:04:50;9.40;99.90
2042;DHT22;1026;51.460;7.252;2024-02-21T12:07:18;9.40;99.90
2042;DHT22;1026;51.460;7.252;2024-02-21T12:09:45;9.40;99.90
2042;DHT22;1026;51.460;7.252;2024-02-21T12:12:12;9.40;99.90
2042;DHT22;1026;51.460;7.252;2024-02-21T12:14:39;9.40;99.90
2042;DHT22;1026;51.460;7.252;2024-02-21T12:17:06;9.40;99.90
2042;DHT22;1026;51.460;7.252;2024-02-21T12:19:33;9.40;99.90
2042;DHT22;1026;51.460;7.252;2024-02-21T12:22:01;9.40;99.90
2042;DHT22;1026;51.460;7.252;2024-02-21T12:24:32;9.50;99.90
2042;DHT22;1026;51.460;7.252;2024-02-21T12:26:59;9.50;99.90
2042;DHT22;1026;51.460;7.252;2024-02-21T12:29:27;9.50;99.90
2042;DHT22;1026;51.460;7.252;2024-02-21T12:31:55;9.50;99.90
2042;DHT22;1026;51.460;7.252;2024-02-21T12:34:23;9.50;99.90
2042;DHT22;1026;51.460;7.252;2024-02-21T12:37:04;9.50;99.90
2042;DHT22;1026;51.460;7.252;2024-02-21T12:39:31;9.50;99.90
2042;DHT22;1026;51.460;7.252;2024-02-21T12:41:59;9.60;99.90
2042;DHT22;1026;51.460;7.252;2024-02-21T12:44:26;9.60;99.90
2042;DHT22;1026;51.460;7.252;2024-02-21T12:46:54;9.60;99.90
2042;DHT22;1026;51.460;7.252;2024-02-21T12:49:22;9.60;99.90
2042;DHT22;1026;51.460;7.252;2024-02-21T12:51:49;9.60;99.90
2042;DHT22;1026;51.460;7.252;2024-02-21T12:54:16;9.60;99.90
2042;DHT22;1026;51.460;7.252;2024-02-21T12:56:43;9.60;99.90
2042;DHT22;1026;51.460;7.252;2024-02-21T12:59:10;9.70;99.90
2042;DHT22;1026;51.460;7.252;2024-02-21T13:01:37;9.60;99.90
2042;DHT22;1026;51.460;7.252;2024-02-21T13:04:07;9.70;99.90
2042;DHT22;1026;51.460;7.252;2024-02-21T13:06:34;9.70;99.90
2042;DHT22;1026;51.460;7.252;2024-02-21T13:09:03;9.70;99.90
2042;DHT22;1026;51.460;7.252;2024-02-21T13:11:34;9.70;99.90
2042;DHT22;1026;51.460;7.252;2024-02-21T13:14:01;9.70;99.90
2042;DHT22;1026;51.460;7.252;2024-02-21T13:16:29;9.70;99.90
2042;DHT22;1026;51.460;7.252;2024-02-21T13:18:56;9.70;99.90
2042;DHT22;1026;51.460;7.252;2024-02-21T13:21:23;9.80;99.90
2042;DHT22;1026;51.460;7.252;2024-02-21T13:23:49;9.80;99.90
2042;DHT22;1026;51.460;7.252;2024-02-21T13:26:16;9.80;99.90
2042;DHT22;1026;51.460;7.252;2024-02-21T13:28:43;9.80;99.90
2042;DHT22;1026;51.460;7.252;2024-02-21T13:31:12;9.80;99.90
2042;DHT22;1026;51.460;7.252;2024-02-21T13:33:39;9.80;99.90
2042;DHT22;1026;51.460;7.252;2024-02-21T13:36:06;9.90;99.90
2042;DHT22;1026;51.460;7.252;2024-02-21T13:38:33;9.90;99.90
2042;DHT22;1026;51.460;7.252;2024-02-21T13:41:00;9.90;99.90
2042;DHT22;1026;51.460;7.252;2024-02-21T13:43:27;9.90;99.90
2042;DHT22;1026;51.460;7.252;2024-02-21T13:46:01;9.90;99.90
2042;DHT22;1026;51.460;7.252;2024-02-21T13:48:36;9.90;99.90
2042;DHT22;1026;51.460;7.252;2024-02-21T13:51:03;9.90;99.90
2042;DHT22;1026;51.460;7.252;2024-02-21T13:53:30;9.90;99.90
2042;DHT22;1026;51.460;7.252;2024-02-21T13:55:57;10.00;99.90
2042;DHT22;1026;51.460;7.252;2024-02-21T13:58:23;9.90;99.90
2042;DHT22;1026;51.460;7.252;2024-02-21T14:00:52;10.00;99.90
2042;DHT22;1026;51.460;7.252;2024-02-21T14:03:19;19.80;44.60
2042;DHT22;1026;51.460;7.252;2024-02-21T14:05:47;19.40;52.10
2042;DHT22;1026;51.460;7.252;2024-02-21T14:08:15;15.00;50.40
2042;DHT22;1026;51.460;7.252;2024-02-21T14:10:42;12.70;58.90
2042;DHT22;1026;51.460;7.252;2024-02-21T14:13:09;11.70;65.70
2042;DHT22;1026;51.460;7.252;2024-02-21T14:15:36;10.90;69.10
2042;DHT22;1026;51.460;7.252;2024-02-21T14:18:04;10.60;71.10
2042;DHT22;1026;51.460;7.252;2024-02-21T14:20:36;10.60;72.30
2042;DHT22;1026;51.460;7.252;2024-02-21T14:23:03;10.40;72.80
2042;DHT22;1026;51.460;7.252;2024-02-21T14:25:31;10.30;73.10
2042;DHT22;1026;51.460;7.252;2024-02-21T14:28:00;10.50;73.70
2042;DHT22;1026;51.460;7.252;2024-02-21T14:30:27;10.30;73.10
2042;DHT22;1026;51.460;7.252;2024-02-21T14:32:54;10.30;73.20
2042;DHT22;1026;51.460;7.252;2024-02-21T14:35:21;10.30;73.50
2042;DHT22;1026;51.460;7.252;2024-02-21T14:37:48;10.30;73.70
2042;DHT22;1026;51.460;7.252;2024-02-21T14:40:19;10.30;73.80
2042;DHT22;1026;51.460;7.252;2024-02-21T14:42:47;10.30;73.90
2042;DHT22;1026;51.460;7.252;2024-02-21T14:45:14;10.30;73.90
2042;DHT22;1026;51.460;7.252;2024-02-21T14:47:41;10.30;73.80
2042;DHT22;1026;51.460;7.252;2024-02-21T14:50:08;10.30;73.90
2042;DHT22;1026;51.460;7.252;2024-02-21T14:52:35;10.30;74.00
2042;DHT22;1026;51.460;7.252;2024-02-21T14:55:04;10.30;74.00
2042;DHT22;1026;51.460;7.252;2024-02-21T14:57:32;10.30;74.00
2042;DHT22;1026;51.460;7.252;2024-02-21T14:59:58;10.40;74.10
2042;DHT22;1026;51.460;7.252;2024-02-21T15:02:27;10.30;74.10
2042;DHT22;1026;51.460;7.252;2024-02-21T15:04:55;10.40;74.00
2042;DHT22;1026;51.460;7.252;2024-02-21T15:07:22;10.40;74.40
2042;DHT22;1026;51.460;7.252;2024-02-21T15:09:52;10.40;74.40
2042;DHT22;1026;51.460;7.252;2024-02-21T15:12:19;10.50;74.50
2042;DHT22;1026;51.460;7.252;2024-02-21T15:14:46;10.40;74.40
2042;DHT22;1026;51.460;7.252;2024-02-21T15:17:13;10.40;74.40
2042;DHT22;1026;51.460;7.252;2024-02-21T15:19:40;10.40;74.50
2042;DHT22;1026;51.460;7.252;2024-02-21T15:22:11;10.40;74.60
2042;DHT22;1026;51.460;7.252;2024-02-21T15:24:39;10.40;74.50
2042;DHT22;1026;51.460;7.252;2024-02-21T15:27:06;10.40;74.50
2042;DHT22;1026;51.460;7.252;2024-02-21T15:29:35;10.40;74.50
2042;DHT22;1026;51.460;7.252;2024-02-21T15:32:05;10.60;74.70
2042;DHT22;1026;51.460;7.252;2024-02-21T15:34:32;10.40;74.70
2042;DHT22;1026;51.460;7.252;2024-02-21T15:37:00;10.40;74.60
2042;DHT22;1026;51.460;7.252;2024-02-21T15:39:27;10.40;74.60
2042;DHT22;1026;51.460;7.252;2024-02-21T15:41:55;10.40;74.60
2042;DHT22;1026;51.460;7.252;2024-02-21T15:44:23;10.40;74.60
2042;DHT22;1026;51.460;7.252;2024-02-21T15:46:50;10.40;74.60
2042;DHT22;1026;51.460;7.252;2024-02-21T15:49:19;10.40;74.60
2042;DHT22;1026;51.460;7.252;2024-02-21T15:51:46;10.40;74.60
2042;DHT22;1026;51.460;7.252;2024-02-21T15:54:14;10.40;74.60
2042;DHT22;1026;51.460;7.252;2024-02-21T15:56:49;10.40;74.60
2042;DHT22;1026;51.460;7.252;2024-02-21T15:59:17;10.40;74.60
2042;DHT22;1026;51.460;7.252;2024-02-21T16:01:44;10.40;74.60
2042;DHT22;1026;51.460;7.252;2024-02-21T16:04:11;10.40;74.80
2042;DHT22;1026;51.460;7.252;2024-02-21T16:06:38;10.40;74.70
2042;DHT22;1026;51.460;7.252;2024-02-21T16:09:05;10.40;74.60
2042;DHT22;1026;51.460;7.252;2024-02-21T16:11:32;10.40;74.90
2042;DHT22;1026;51.460;7.252;2024-02-21T16:14:01;10.40;74.50
2042;DHT22;1026;51.460;7.252;2024-02-21T16:16:30;10.40;74.60
2042;DHT22;1026;51.460;7.252;2024-02-21T16:18:58;10.40;74.90
2042;DHT22;1026;51.460;7.252;2024-02-21T16:21:25;10.40;74.90
2042;DHT22;1026;51.460;7.252;2024-02-21T16:23:54;10.40;75.00
2042;DHT22;1026;51.460;7.252;2024-02-21T16:26:22;10.40;75.60